sensor_id;sensor_type;location;lat;lon;timestamp;P1;durP1;ratioP1;P2;durP2;ratioP2
52942;SDS011;38809;53.300;6.614;2023-04-28T00:01:47;6.87;;;4.80;;
52942;SDS011;38809;53.300;6.614;2023-04-28T00:04:13;5.83;;;4.50;;
52942;SDS011;38809;53.300;6.614;2023-04-28T00:06:39;7.78;;;4.90;;
52942;SDS011;38809;53.300;6.614;2023-04-28T00:09:05;6.90;;;5.18;;
52942;SDS011;38809;53.300;6.614;2023-04-28T00:11:35;7.53;;;5.32;;
52942;SDS011;38809;53.300;6.614;2023-04-28T00:14:02;8.82;;;5.38;;
52942;SDS011;38809;53.300;6.614;2023-04-28T00:16:28;8.63;;;5.18;;
52942;SDS011;38809;53.300;6.614;2023-04-28T00:18:53;8.90;;;5.73;;
52942;SDS011;38809;53.300;6.614;2023-04-28T00:21:19;9.10;;;6.03;;
52942;SDS011;38809;53.300;6.614;2023-04-28T00:23:44;8.77;;;6.10;;
52942;SDS011;38809;53.300;6.614;2023-04-28T00:26:10;7.80;;;5.07;;
52942;SDS011;38809;53.300;6.614;2023-04-28T00:28:36;8.57;;;5.60;;
52942;SDS011;38809;53.300;6.614;2023-04-28T00:31:08;8.47;;;6.17;;
52942;SDS011;38809;53.300;6.614;2023-04-28T00:33:36;9.77;;;6.20;;
52942;SDS011;38809;53.300;6.614;2023-04-28T00:36:02;10.32;;;5.50;;
52942;SDS011;38809;53.300;6.614;2023-04-28T00:38:28;7.55;;;5.35;;
52942;SDS011;38809;53.300;6.614;2023-04-28T00:40:54;8.77;;;5.10;;
52942;SDS011;38809;53.300;6.614;2023-04-28T00:43:20;7.68;;;5.22;;
52942;SDS011;38809;53.300;6.614;2023-04-28T00:45:45;7.32;;;5.35;;
52942;SDS011;38809;53.300;6.614;2023-04-28T00:48:12;8.75;;;5.93;;
52942;SDS011;38809;53.300;6.614;2023-04-28T00:50:38;6.93;;;5.38;;
52942;SDS011;38809;53.300;6.614;2023-04-28T00:53:04;8.98;;;5.68;;
52942;SDS011;38809;53.300;6.614;2023-04-28T00:55:30;8.40;;;5.18;;
52942;SDS011;38809;53.300;6.614;2023-04-28T00:57:58;7.85;;;5.55;;
52942;SDS011;38809;53.300;6.614;2023-04-28T01:00:24;8.60;;;5.53;;
52942;SDS011;38809;53.300;6.614;2023-04-28T01:02:51;7.25;;;5.20;;
52942;SDS011;38809;53.300;6.614;2023-04-28T01:07:43;7.30;;;4.32;;
52942;SDS011;38809;53.300;6.614;2023-04-28T01:10:09;7.20;;;4.80;;
52942;SDS011;38809;53.300;6.614;2023-04-28T01:12:35;8.55;;;4.72;;
52942;SDS011;38809;53.300;6.614;2023-04-28T01:15:00;7.22;;;5.28;;
52942;SDS011;38809;53.300;6.614;2023-04-28T01:17:26;8.75;;;5.72;;
52942;SDS011;38809;53.300;6.614;2023-04-28T01:19:52;8.07;;;5.67;;
52942;SDS011;38809;53.300;6.614;2023-04-28T01:22:18;7.30;;;5.03;;
52942;SDS011;38809;53.300;6.614;2023-04-28T01:24:43;9.90;;;5.60;;
52942;SDS011;38809;53.300;6.614;2023-04-28T01:27:09;7.47;;;5.60;;
52942;SDS011;38809;53.300;6.614;2023-04-28T01:29:35;14.18;;;5.95;;
52942;SDS011;38809;53.300;6.614;2023-04-28T01:32:01;7.43;;;5.50;;
52942;SDS011;38809;53.300;6.614;2023-04-28T01:34:27;8.57;;;6.05;;
52942;SDS011;38809;53.300;6.614;2023-04-28T01:36:53;8.60;;;5.23;;
52942;SDS011;38809;53.300;6.614;2023-04-28T01:39:18;7.27;;;4.97;;
52942;SDS011;38809;53.300;6.614;2023-04-28T01:41:44;7.47;;;5.13;;
52942;SDS011;38809;53.300;6.614;2023-04-28T01:44:10;8.23;;;5.57;;
52942;SDS011;38809;53.300;6.614;2023-04-28T01:46:37;8.63;;;5.95;;
52942;SDS011;38809;53.300;6.614;2023-04-28T01:49:02;8.63;;;5.30;;
52942;SDS011;38809;53.300;6.614;2023-04-28T01:51:28;8.63;;;5.13;;
52942;SDS011;38809;53.300;6.614;2023-04-28T01:53:55;8.40;;;5.70;;
52942;SDS011;38809;53.300;6.614;2023-04-28T01:56:21;8.63;;;5.97;;
52942;SDS011;38809;53.300;6.614;2023-04-28T01:58:46;9.10;;;5.97;;
52942;SDS011;38809;53.300;6.614;2023-04-28T02:01:12;8.83;;;5.40;;
52942;SDS011;38809;53.300;6.614;2023-04-28T02:03:38;8.97;;;5.90;;
52942;SDS011;38809;53.300;6.614;2023-04-28T02:06:04;10.63;;;6.33;;
52942;SDS011;38809;53.300;6.614;2023-04-28T02:08:29;8.65;;;5.88;;
52942;SDS011;38809;53.300;6.614;2023-04-28T02:10:55;9.68;;;6.53;;
52942;SDS011;38809;53.300;6.614;2023-04-28T02:13:22;9.15;;;6.47;;
52942;SDS011;38809;53.300;6.614;2023-04-28T02:15:48;10.48;;;6.78;;
52942;SDS011;38809;53.300;6.614;2023-04-28T02:18:13;9.05;;;6.60;;
52942;SDS011;38809;53.300;6.614;2023-04-28T02:20:39;9.48;;;6.68;;
52942;SDS011;38809;53.300;6.614;2023-04-28T02:23:05;9.60;;;6.67;;
52942;SDS011;38809;53.300;6.614;2023-04-28T02:25:31;8.97;;;6.17;;
52942;SDS011;38809;53.300;6.614;2023-04-28T02:27:56;10.00;;;7.07;;
52942;SDS011;38809;53.300;6.614;2023-04-28T02:30:23;9.32;;;5.90;;
52942;SDS011;38809;53.300;6.614;2023-04-28T02:32:49;9.10;;;6.18;;
52942;SDS011;38809;53.300;6.614;2023-04-28T02:35:14;9.00;;;6.72;;
52942;SDS011;38809;53.300;6.614;2023-04-28T02:37:40;10.80;;;7.20;;
52942;SDS011;38809;53.300;6.614;2023-04-28T02:40:06;9.60;;;7.05;;
52942;SDS011;38809;53.300;6.614;2023-04-28T02:42:32;10.40;;;6.35;;
52942;SDS011;38809;53.300;6.614;2023-04-28T02:44:58;10.77;;;7.17;;
52942;SDS011;38809;53.300;6.614;2023-04-28T02:47:23;11.30;;;6.53;;
52942;SDS011;38809;53.300;6.614;2023-04-28T02:49:49;10.73;;;7.60;;
52942;SDS011;38809;53.300;6.614;2023-04-28T02:52:15;11.80;;;7.40;;
52942;SDS011;38809;53.300;6.614;2023-04-28T02:54:40;10.40;;;7.13;;
52942;SDS011;38809;53.300;6.614;2023-04-28T02:57:06;11.30;;;7.73;;
52942;SDS011;38809;53.300;6.614;2023-04-28T02:59:32;10.25;;;6.35;;
52942;SDS011;38809;53.300;6.614;2023-04-28T03:01:57;10.33;;;7.13;;
52942;SDS011;38809;53.300;6.614;2023-04-28T03:04:23;12.27;;;8.73;;
52942;SDS011;38809;53.300;6.614;2023-04-28T03:06:49;11.90;;;8.47;;
52942;SDS011;38809;53.300;6.614;2023-04-28T03:09:15;10.90;;;8.73;;
52942;SDS011;38809;53.300;6.614;2023-04-28T03:11:40;12.63;;;8.07;;
52942;SDS011;38809;53.300;6.614;2023-04-28T03:14:06;12.53;;;8.90;;
52942;SDS011;38809;53.300;6.614;2023-04-28T03:16:32;13.07;;;9.17;;
52942;SDS011;38809;53.300;6.614;2023-04-28T03:18:58;11.73;;;8.07;;
52942;SDS011;38809;53.300;6.614;2023-04-28T03:21:24;11.77;;;8.32;;
52942;SDS011;38809;53.300;6.614;2023-04-28T03:23:53;12.45;;;8.18;;
52942;SDS011;38809;53.300;6.614;2023-04-28T03:26:18;13.90;;;9.38;;
52942;SDS011;38809;53.300;6.614;2023-04-28T03:28:45;13.98;;;9.43;;
52942;SDS011;38809;53.300;6.614;2023-04-28T03:31:10;12.27;;;8.47;;
52942;SDS011;38809;53.300;6.614;2023-04-28T03:33:36;14.80;;;8.73;;
52942;SDS011;38809;53.300;6.614;2023-04-28T03:36:01;14.20;;;8.77;;
52942;SDS011;38809;53.300;6.614;2023-04-28T03:38:27;16.48;;;9.50;;
52942;SDS011;38809;53.300;6.614;2023-04-28T03:40:53;14.05;;;9.95;;
52942;SDS011;38809;53.300;6.614;2023-04-28T03:43:19;16.27;;;9.63;;
52942;SDS011;38809;53.300;6.614;2023-04-28T03:45:45;14.93;;;9.90;;
52942;SDS011;38809;53.300;6.614;2023-04-28T03:48:11;16.38;;;10.13;;
52942;SDS011;38809;53.300;6.614;2023-04-28T03:50:36;14.57;;;9.17;;
52942;SDS011;38809;53.300;6.614;2023-04-28T03:53:04;17.35;;;10.70;;
52942;SDS011;38809;53.300;6.614;2023-04-28T03:55:30;16.15;;;10.57;;
52942;SDS011;38809;53.300;6.614;2023-04-28T03:57:56;14.80;;;10.18;;
52942;SDS011;38809;53.300;6.614;2023-04-28T04:00:21;17.63;;;11.10;;
52942;SDS011;38809;53.300;6.614;2023-04-28T04:02:47;17.23;;;10.30;;
52942;SDS011;38809;53.300;6.614;2023-04-28T04:05:13;16.47;;;10.07;;
52942;SDS011;38809;53.300;6.614;2023-04-28T04:07:38;15.40;;;10.05;;
52942;SDS011;38809;53.300;6.614;2023-04-28T04:10:04;18.90;;;11.00;;
52942;SDS011;38809;53.300;6.614;2023-04-28T04:12:30;17.35;;;10.80;;
52942;SDS011;38809;53.300;6.614;2023-04-28T04:14:56;15.52;;;9.32;;
52942;SDS011;38809;53.300;6.614;2023-04-28T04:17:22;15.73;;;10.97;;
52942;SDS011;38809;53.300;6.614;2023-04-28T04:19:47;15.63;;;9.63;;
52942;SDS011;38809;53.300;6.614;2023-04-28T04:22:13;16.40;;;10.37;;
52942;SDS011;38809;53.300;6.614;2023-04-28T04:24:39;15.93;;;10.00;;
52942;SDS011;38809;53.300;6.614;2023-04-28T04:27:04;13.97;;;9.70;;
52942;SDS011;38809;53.300;6.614;2023-04-28T04:29:30;13.07;;;8.77;;
52942;SDS011;38809;53.300;6.614;2023-04-28T04:31:56;16.07;;;10.27;;
52942;SDS011;38809;53.300;6.614;2023-04-28T04:34:21;14.27;;;8.73;;
52942;SDS011;38809;53.300;6.614;2023-04-28T04:36:47;16.33;;;10.37;;
52942;SDS011;38809;53.300;6.614;2023-04-28T04:39:12;17.33;;;11.20;;
52942;SDS011;38809;53.300;6.614;2023-04-28T04:41:38;13.23;;;9.27;;
52942;SDS011;38809;53.300;6.614;2023-04-28T04:44:06;12.52;;;8.50;;
52942;SDS011;38809;53.300;6.614;2023-04-28T04:46:31;14.85;;;9.77;;
52942;SDS011;38809;53.300;6.614;2023-04-28T04:48:57;15.03;;;10.17;;
52942;SDS011;38809;53.300;6.614;2023-04-28T04:51:23;17.83;;;10.90;;
52942;SDS011;38809;53.300;6.614;2023-04-28T04:53:49;18.40;;;10.30;;
52942;SDS011;38809;53.300;6.614;2023-04-28T04:56:14;14.98;;;9.27;;
52942;SDS011;38809;53.300;6.614;2023-04-28T04:58:41;15.80;;;10.10;;
52942;SDS011;38809;53.300;6.614;2023-04-28T05:01:08;14.75;;;9.45;;
52942;SDS011;38809;53.300;6.614;2023-04-28T05:03:34;15.95;;;9.43;;
52942;SDS011;38809;53.300;6.614;2023-04-28T05:06:00;14.90;;;9.63;;
52942;SDS011;38809;53.300;6.614;2023-04-28T05:08:27;14.38;;;8.77;;
52942;SDS011;38809;53.300;6.614;2023-04-28T05:10:52;13.77;;;9.40;;
52942;SDS011;38809;53.300;6.614;2023-04-28T05:13:18;15.63;;;10.50;;
52942;SDS011;38809;53.300;6.614;2023-04-28T05:15:44;15.70;;;9.37;;
52942;SDS011;38809;53.300;6.614;2023-04-28T05:18:09;16.15;;;10.05;;
52942;SDS011;38809;53.300;6.614;2023-04-28T05:20:37;16.50;;;9.80;;
52942;SDS011;38809;53.300;6.614;2023-04-28T05:23:03;14.45;;;9.80;;
52942;SDS011;38809;53.300;6.614;2023-04-28T05:27:55;17.42;;;9.27;;
52942;SDS011;38809;53.300;6.614;2023-04-28T05:30:21;15.97;;;10.30;;
52942;SDS011;38809;53.300;6.614;2023-04-28T05:32:46;15.77;;;10.30;;
52942;SDS011;38809;53.300;6.614;2023-04-28T05:35:12;16.13;;;9.83;;
52942;SDS011;38809;53.300;6.614;2023-04-28T05:40:07;16.27;;;10.73;;
52942;SDS011;38809;53.300;6.614;2023-04-28T05:42:33;14.35;;;9.55;;
52942;SDS011;38809;53.300;6.614;2023-04-28T05:44:59;15.63;;;10.60;;
52942;SDS011;38809;53.300;6.614;2023-04-28T05:47:25;15.10;;;9.33;;
52942;SDS011;38809;53.300;6.614;2023-04-28T05:49:50;14.03;;;9.67;;
52942;SDS011;38809;53.300;6.614;2023-04-28T05:52:16;15.57;;;10.03;;
52942;SDS011;38809;53.300;6.614;2023-04-28T05:54:42;14.55;;;9.55;;
52942;SDS011;38809;53.300;6.614;2023-04-28T05:57:08;12.93;;;9.25;;
52942;SDS011;38809;53.300;6.614;2023-04-28T05:59:33;14.03;;;9.40;;
52942;SDS011;38809;53.300;6.614;2023-04-28T06:01:59;14.05;;;10.15;;
52942;SDS011;38809;53.300;6.614;2023-04-28T06:04:25;14.30;;;9.03;;
52942;SDS011;38809;53.300;6.614;2023-04-28T06:06:50;14.43;;;9.00;;
52942;SDS011;38809;53.300;6.614;2023-04-28T06:09:16;12.50;;;8.13;;
52942;SDS011;38809;53.300;6.614;2023-04-28T06:11:42;13.70;;;8.10;;
52942;SDS011;38809;53.300;6.614;2023-04-28T06:14:07;12.73;;;7.87;;
52942;SDS011;38809;53.300;6.614;2023-04-28T06:16:33;11.00;;;7.83;;
52942;SDS011;38809;53.300;6.614;2023-04-28T06:18:59;12.27;;;7.53;;
52942;SDS011;38809;53.300;6.614;2023-04-28T06:21:25;11.60;;;8.38;;
52942;SDS011;38809;53.300;6.614;2023-04-28T06:23:53;11.68;;;7.55;;
52942;SDS011;38809;53.300;6.614;2023-04-28T06:26:18;10.40;;;7.67;;
52942;SDS011;38809;53.300;6.614;2023-04-28T06:28:44;12.03;;;7.90;;
52942;SDS011;38809;53.300;6.614;2023-04-28T06:31:10;11.98;;;7.55;;
52942;SDS011;38809;53.300;6.614;2023-04-28T06:33:36;12.67;;;8.83;;
52942;SDS011;38809;53.300;6.614;2023-04-28T06:36:02;12.23;;;7.67;;
52942;SDS011;38809;53.300;6.614;2023-04-28T06:38:28;12.95;;;8.05;;
52942;SDS011;38809;53.300;6.614;2023-04-28T06:40:53;11.25;;;7.82;;
52942;SDS011;38809;53.300;6.614;2023-04-28T06:43:19;11.63;;;7.87;;
52942;SDS011;38809;53.300;6.614;2023-04-28T06:45:45;13.50;;;8.43;;
52942;SDS011;38809;53.300;6.614;2023-04-28T06:48:11;12.70;;;8.70;;
52942;SDS011;38809;53.300;6.614;2023-04-28T06:50:36;13.00;;;7.93;;
52942;SDS011;38809;53.300;6.614;2023-04-28T06:53:02;11.53;;;8.00;;
52942;SDS011;38809;53.300;6.614;2023-04-28T06:55:28;11.43;;;7.50;;
52942;SDS011;38809;53.300;6.614;2023-04-28T06:57:53;11.00;;;7.72;;
52942;SDS011;38809;53.300;6.614;2023-04-28T07:00:19;13.47;;;8.03;;
52942;SDS011;38809;53.300;6.614;2023-04-28T07:02:45;10.77;;;8.00;;
52942;SDS011;38809;53.300;6.614;2023-04-28T07:05:11;11.40;;;7.90;;
52942;SDS011;38809;53.300;6.614;2023-04-28T07:07:36;11.57;;;8.45;;
52942;SDS011;38809;53.300;6.614;2023-04-28T07:10:03;9.63;;;7.32;;
52942;SDS011;38809;53.300;6.614;2023-04-28T07:12:29;12.00;;;7.80;;
52942;SDS011;38809;53.300;6.614;2023-04-28T07:14:55;11.60;;;8.27;;
52942;SDS011;38809;53.300;6.614;2023-04-28T07:17:20;10.13;;;7.23;;
52942;SDS011;38809;53.300;6.614;2023-04-28T07:19:46;11.10;;;7.87;;
52942;SDS011;38809;53.300;6.614;2023-04-28T07:22:14;11.10;;;7.90;;
52942;SDS011;38809;53.300;6.614;2023-04-28T07:24:39;11.10;;;7.43;;
52942;SDS011;38809;53.300;6.614;2023-04-28T07:27:05;10.67;;;7.73;;
52942;SDS011;38809;53.300;6.614;2023-04-28T07:29:30;11.63;;;7.57;;
52942;SDS011;38809;53.300;6.614;2023-04-28T07:31:59;11.65;;;7.97;;
52942;SDS011;38809;53.300;6.614;2023-04-28T07:36:51;10.75;;;7.47;;
52942;SDS011;38809;53.300;6.614;2023-04-28T07:39:17;10.07;;;7.10;;
52942;SDS011;38809;53.300;6.614;2023-04-28T07:41:43;11.93;;;7.47;;
52942;SDS011;38809;53.300;6.614;2023-04-28T07:44:08;12.03;;;7.83;;
52942;SDS011;38809;53.300;6.614;2023-04-28T07:46:34;10.20;;;7.30;;
52942;SDS011;38809;53.300;6.614;2023-04-28T07:49:00;12.13;;;8.02;;
52942;SDS011;38809;53.300;6.614;2023-04-28T07:51:27;11.40;;;7.47;;
52942;SDS011;38809;53.300;6.614;2023-04-28T07:53:53;9.98;;;7.45;;
52942;SDS011;38809;53.300;6.614;2023-04-28T07:56:18;10.30;;;7.40;;
52942;SDS011;38809;53.300;6.614;2023-04-28T07:58:45;10.25;;;6.88;;
52942;SDS011;38809;53.300;6.614;2023-04-28T08:01:11;9.05;;;7.15;;
52942;SDS011;38809;53.300;6.614;2023-04-28T08:03:37;9.68;;;6.93;;
52942;SDS011;38809;53.300;6.614;2023-04-28T08:06:03;9.93;;;7.37;;
52942;SDS011;38809;53.300;6.614;2023-04-28T08:08:29;10.95;;;7.20;;
52942;SDS011;38809;53.300;6.614;2023-04-28T08:10:55;10.18;;;7.40;;
52942;SDS011;38809;53.300;6.614;2023-04-28T08:13:21;11.18;;;6.78;;
52942;SDS011;38809;53.300;6.614;2023-04-28T08:15:47;9.18;;;7.32;;
52942;SDS011;38809;53.300;6.614;2023-04-28T08:18:13;8.80;;;7.05;;
52942;SDS011;38809;53.300;6.614;2023-04-28T08:20:39;10.43;;;7.60;;
52942;SDS011;38809;53.300;6.614;2023-04-28T08:23:05;9.60;;;7.00;;
52942;SDS011;38809;53.300;6.614;2023-04-28T08:25:32;12.88;;;8.13;;
52942;SDS011;38809;53.300;6.614;2023-04-28T08:27:57;11.63;;;8.07;;
52942;SDS011;38809;53.300;6.614;2023-04-28T08:30:23;11.10;;;7.13;;
52942;SDS011;38809;53.300;6.614;2023-04-28T08:32:49;10.02;;;6.90;;
52942;SDS011;38809;53.300;6.614;2023-04-28T08:35:15;10.23;;;7.22;;
52942;SDS011;38809;53.300;6.614;2023-04-28T08:37:41;11.68;;;7.40;;
52942;SDS011;38809;53.300;6.614;2023-04-28T08:40:07;12.30;;;7.63;;
52942;SDS011;38809;53.300;6.614;2023-04-28T08:42:34;11.10;;;7.07;;
52942;SDS011;38809;53.300;6.614;2023-04-28T08:45:02;10.35;;;7.68;;
52942;SDS011;38809;53.300;6.614;2023-04-28T08:47:33;9.80;;;7.07;;
52942;SDS011;38809;53.300;6.614;2023-04-28T08:50:03;11.10;;;7.75;;
52942;SDS011;38809;53.300;6.614;2023-04-28T08:52:30;12.00;;;7.35;;
52942;SDS011;38809;53.300;6.614;2023-04-28T08:54:57;11.10;;;7.35;;
52942;SDS011;38809;53.300;6.614;2023-04-28T08:57:25;12.43;;;8.25;;
52942;SDS011;38809;53.300;6.614;2023-04-28T08:59:54;9.70;;;7.38;;
52942;SDS011;38809;53.300;6.614;2023-04-28T09:02:20;10.27;;;7.60;;
52942;SDS011;38809;53.300;6.614;2023-04-28T09:04:46;9.48;;;7.28;;
52942;SDS011;38809;53.300;6.614;2023-04-28T09:07:12;10.47;;;7.53;;
52942;SDS011;38809;53.300;6.614;2023-04-28T09:09:38;10.60;;;7.07;;
52942;SDS011;38809;53.300;6.614;2023-04-28T09:14:31;9.43;;;6.88;;
52942;SDS011;38809;53.300;6.614;2023-04-28T09:16:58;11.90;;;7.45;;
52942;SDS011;38809;53.300;6.614;2023-04-28T09:19:34;12.10;;;7.50;;
52942;SDS011;38809;53.300;6.614;2023-04-28T09:22:01;13.05;;;8.48;;
52942;SDS011;38809;53.300;6.614;2023-04-28T09:24:28;12.05;;;7.60;;
52942;SDS011;38809;53.300;6.614;2023-04-28T09:26:59;13.25;;;7.63;;
52942;SDS011;38809;53.300;6.614;2023-04-28T09:29:26;10.45;;;7.18;;
52942;SDS011;38809;53.300;6.614;2023-04-28T09:34:19;9.95;;;7.05;;
52942;SDS011;38809;53.300;6.614;2023-04-28T09:36:46;9.68;;;7.05;;
52942;SDS011;38809;53.300;6.614;2023-04-28T09:39:12;11.23;;;6.80;;
52942;SDS011;38809;53.300;6.614;2023-04-28T09:41:38;10.05;;;7.45;;
52942;SDS011;38809;53.300;6.614;2023-04-28T09:46:41;11.25;;;7.40;;
52942;SDS011;38809;53.300;6.614;2023-04-28T09:49:08;13.52;;;7.68;;
52942;SDS011;38809;53.300;6.614;2023-04-28T09:51:35;11.68;;;7.32;;
52942;SDS011;38809;53.300;6.614;2023-04-28T09:54:00;11.02;;;7.50;;
52942;SDS011;38809;53.300;6.614;2023-04-28T09:56:28;11.02;;;7.38;;
52942;SDS011;38809;53.300;6.614;2023-04-28T09:58:58;11.18;;;8.00;;
52942;SDS011;38809;53.300;6.614;2023-04-28T10:01:26;9.95;;;7.35;;
52942;SDS011;38809;53.300;6.614;2023-04-28T10:04:00;9.88;;;7.35;;
52942;SDS011;38809;53.300;6.614;2023-04-28T10:06:28;11.23;;;7.50;;
52942;SDS011;38809;53.300;6.614;2023-04-28T10:08:54;10.25;;;7.20;;
52942;SDS011;38809;53.300;6.614;2023-04-28T10:11:21;9.73;;;6.80;;
52942;SDS011;38809;53.300;6.614;2023-04-28T10:13:49;12.73;;;7.63;;
52942;SDS011;38809;53.300;6.614;2023-04-28T10:16:17;10.50;;;7.72;;
52942;SDS011;38809;53.300;6.614;2023-04-28T10:18:44;11.60;;;7.32;;
52942;SDS011;38809;53.300;6.614;2023-04-28T10:21:10;9.95;;;6.85;;
52942;SDS011;38809;53.300;6.614;2023-04-28T10:29:28;11.30;;;7.38;;
52942;SDS011;38809;53.300;6.614;2023-04-28T10:34:41;10.63;;;6.63;;
52942;SDS011;38809;53.300;6.614;2023-04-28T10:37:06;10.70;;;7.82;;
52942;SDS011;38809;53.300;6.614;2023-04-28T10:39:32;10.23;;;7.75;;
52942;SDS011;38809;53.300;6.614;2023-04-28T10:41:59;11.68;;;7.43;;
52942;SDS011;38809;53.300;6.614;2023-04-28T10:47:01;10.40;;;6.53;;
52942;SDS011;38809;53.300;6.614;2023-04-28T11:00:40;9.52;;;7.18;;
52942;SDS011;38809;53.300;6.614;2023-04-28T11:03:07;10.52;;;7.45;;
52942;SDS011;38809;53.300;6.614;2023-04-28T11:05:32;10.30;;;7.53;;
52942;SDS011;38809;53.300;6.614;2023-04-28T11:13:34;11.82;;;8.35;;
52942;SDS011;38809;53.300;6.614;2023-04-28T11:16:03;11.10;;;8.73;;
52942;SDS011;38809;53.300;6.614;2023-04-28T11:18:49;10.57;;;8.23;;
52942;SDS011;38809;53.300;6.614;2023-04-28T11:21:20;10.30;;;8.02;;
52942;SDS011;38809;53.300;6.614;2023-04-28T11:23:47;10.75;;;8.00;;
52942;SDS011;38809;53.300;6.614;2023-04-28T11:26:13;10.35;;;7.50;;
52942;SDS011;38809;53.300;6.614;2023-04-28T11:28:50;11.65;;;8.05;;
52942;SDS011;38809;53.300;6.614;2023-04-28T11:31:17;9.38;;;7.53;;
52942;SDS011;38809;53.300;6.614;2023-04-28T11:38:57;11.80;;;8.35;;
52942;SDS011;38809;53.300;6.614;2023-04-28T11:41:23;12.50;;;8.90;;
52942;SDS011;38809;53.300;6.614;2023-04-28T11:43:50;11.80;;;8.82;;
52942;SDS011;38809;53.300;6.614;2023-04-28T11:46:20;13.25;;;9.40;;
52942;SDS011;38809;53.300;6.614;2023-04-28T11:48:47;11.43;;;8.68;;
52942;SDS011;38809;53.300;6.614;2023-04-28T11:53:56;11.30;;;9.13;;
52942;SDS011;38809;53.300;6.614;2023-04-28T11:56:22;13.00;;;8.85;;
52942;SDS011;38809;53.300;6.614;2023-04-28T11:59:00;11.40;;;8.60;;
52942;SDS011;38809;53.300;6.614;2023-04-28T12:01:29;12.95;;;8.60;;
52942;SDS011;38809;53.300;6.614;2023-04-28T12:03:56;11.55;;;9.00;;
52942;SDS011;38809;53.300;6.614;2023-04-28T12:06:21;12.95;;;9.32;;
52942;SDS011;38809;53.300;6.614;2023-04-28T12:08:47;12.10;;;9.82;;
52942;SDS011;38809;53.300;6.614;2023-04-28T12:13:42;12.75;;;10.00;;
52942;SDS011;38809;53.300;6.614;2023-04-28T12:16:07;13.30;;;9.45;;
52942;SDS011;38809;53.300;6.614;2023-04-28T12:18:34;12.57;;;9.95;;
52942;SDS011;38809;53.300;6.614;2023-04-28T12:21:00;13.43;;;9.68;;
52942;SDS011;38809;53.300;6.614;2023-04-28T12:23:32;11.48;;;9.85;;
52942;SDS011;38809;53.300;6.614;2023-04-28T12:26:00;11.70;;;8.82;;
52942;SDS011;38809;53.300;6.614;2023-04-28T12:28:36;14.63;;;9.25;;
52942;SDS011;38809;53.300;6.614;2023-04-28T12:31:03;14.95;;;10.10;;
52942;SDS011;38809;53.300;6.614;2023-04-28T12:33:31;14.70;;;9.48;;
52942;SDS011;38809;53.300;6.614;2023-04-28T12:36:01;13.32;;;10.05;;
52942;SDS011;38809;53.300;6.614;2023-04-28T12:38:29;13.48;;;10.65;;
52942;SDS011;38809;53.300;6.614;2023-04-28T12:40:56;11.70;;;9.70;;
52942;SDS011;38809;53.300;6.614;2023-04-28T12:43:22;15.85;;;10.25;;
52942;SDS011;38809;53.300;6.614;2023-04-28T12:45:50;13.07;;;10.38;;
52942;SDS011;38809;53.300;6.614;2023-04-28T12:48:20;17.58;;;10.90;;
52942;SDS011;38809;53.300;6.614;2023-04-28T12:50:49;13.73;;;11.00;;
52942;SDS011;38809;53.300;6.614;2023-04-28T12:53:14;13.60;;;11.35;;
52942;SDS011;38809;53.300;6.614;2023-04-28T12:55:40;16.05;;;10.63;;
52942;SDS011;38809;53.300;6.614;2023-04-28T12:58:06;13.50;;;10.88;;
52942;SDS011;38809;53.300;6.614;2023-04-28T13:00:32;15.00;;;11.05;;
52942;SDS011;38809;53.300;6.614;2023-04-28T13:02:58;15.00;;;11.03;;
52942;SDS011;38809;53.300;6.614;2023-04-28T13:05:23;15.13;;;11.30;;
52942;SDS011;38809;53.300;6.614;2023-04-28T13:07:49;14.90;;;11.53;;
52942;SDS011;38809;53.300;6.614;2023-04-28T13:10:16;13.48;;;10.73;;
52942;SDS011;38809;53.300;6.614;2023-04-28T13:15:08;14.68;;;11.68;;
52942;SDS011;38809;53.300;6.614;2023-04-28T13:17:34;14.05;;;11.02;;
52942;SDS011;38809;53.300;6.614;2023-04-28T13:20:00;14.20;;;10.83;;
52942;SDS011;38809;53.300;6.614;2023-04-28T13:22:27;16.20;;;11.40;;
52942;SDS011;38809;53.300;6.614;2023-04-28T13:24:53;15.27;;;12.23;;
52942;SDS011;38809;53.300;6.614;2023-04-28T13:27:20;16.48;;;11.73;;
52942;SDS011;38809;53.300;6.614;2023-04-28T13:29:45;18.33;;;12.18;;
52942;SDS011;38809;53.300;6.614;2023-04-28T13:32:11;13.90;;;11.57;;
52942;SDS011;38809;53.300;6.614;2023-04-28T13:34:37;15.82;;;11.88;;
52942;SDS011;38809;53.300;6.614;2023-04-28T13:37:04;16.00;;;11.73;;
52942;SDS011;38809;53.300;6.614;2023-04-28T13:39:29;14.43;;;11.40;;
52942;SDS011;38809;53.300;6.614;2023-04-28T13:41:55;17.10;;;11.27;;
52942;SDS011;38809;53.300;6.614;2023-04-28T13:44:21;14.10;;;11.20;;
52942;SDS011;38809;53.300;6.614;2023-04-28T13:46:47;17.13;;;12.37;;
52942;SDS011;38809;53.300;6.614;2023-04-28T13:49:12;15.57;;;11.18;;
52942;SDS011;38809;53.300;6.614;2023-04-28T13:51:38;18.85;;;12.32;;
52942;SDS011;38809;53.300;6.614;2023-04-28T13:54:05;16.23;;;11.70;;
52942;SDS011;38809;53.300;6.614;2023-04-28T13:56:35;16.40;;;12.95;;
52942;SDS011;38809;53.300;6.614;2023-04-28T13:59:01;16.77;;;12.25;;
52942;SDS011;38809;53.300;6.614;2023-04-28T14:01:28;16.63;;;12.70;;
52942;SDS011;38809;53.300;6.614;2023-04-28T14:03:54;14.23;;;11.50;;
52942;SDS011;38809;53.300;6.614;2023-04-28T14:06:19;16.23;;;12.02;;
52942;SDS011;38809;53.300;6.614;2023-04-28T14:08:45;17.33;;;12.73;;
52942;SDS011;38809;53.300;6.614;2023-04-28T14:11:12;15.73;;;12.45;;
52942;SDS011;38809;53.300;6.614;2023-04-28T14:13:37;17.05;;;12.18;;
52942;SDS011;38809;53.300;6.614;2023-04-28T14:16:03;16.63;;;13.40;;
52942;SDS011;38809;53.300;6.614;2023-04-28T14:18:29;15.57;;;12.32;;
52942;SDS011;38809;53.300;6.614;2023-04-28T14:20:57;18.25;;;13.20;;
52942;SDS011;38809;53.300;6.614;2023-04-28T14:23:22;16.87;;;12.67;;
52942;SDS011;38809;53.300;6.614;2023-04-28T14:25:48;16.93;;;13.40;;
52942;SDS011;38809;53.300;6.614;2023-04-28T14:28:14;16.98;;;13.90;;
52942;SDS011;38809;53.300;6.614;2023-04-28T14:30:40;17.98;;;13.73;;
52942;SDS011;38809;53.300;6.614;2023-04-28T14:33:06;17.70;;;13.65;;
52942;SDS011;38809;53.300;6.614;2023-04-28T14:35:32;19.55;;;13.82;;
52942;SDS011;38809;53.300;6.614;2023-04-28T14:37:58;17.38;;;13.70;;
52942;SDS011;38809;53.300;6.614;2023-04-28T14:40:24;17.92;;;14.40;;
52942;SDS011;38809;53.300;6.614;2023-04-28T14:42:50;19.83;;;14.85;;
52942;SDS011;38809;53.300;6.614;2023-04-28T14:45:17;18.40;;;14.38;;
52942;SDS011;38809;53.300;6.614;2023-04-28T14:47:43;18.70;;;13.98;;
52942;SDS011;38809;53.300;6.614;2023-04-28T14:50:09;18.95;;;14.88;;
52942;SDS011;38809;53.300;6.614;2023-04-28T14:52:35;18.70;;;15.07;;
52942;SDS011;38809;53.300;6.614;2023-04-28T14:55:03;18.63;;;15.45;;
52942;SDS011;38809;53.300;6.614;2023-04-28T14:57:29;18.55;;;13.80;;
52942;SDS011;38809;53.300;6.614;2023-04-28T14:59:55;20.00;;;13.93;;
52942;SDS011;38809;53.300;6.614;2023-04-28T15:02:21;17.35;;;13.52;;
52942;SDS011;38809;53.300;6.614;2023-04-28T15:04:52;18.80;;;14.23;;
52942;SDS011;38809;53.300;6.614;2023-04-28T15:07:18;20.58;;;14.65;;
52942;SDS011;38809;53.300;6.614;2023-04-28T15:09:45;17.60;;;13.85;;
52942;SDS011;38809;53.300;6.614;2023-04-28T15:12:11;17.25;;;14.35;;
52942;SDS011;38809;53.300;6.614;2023-04-28T15:14:36;20.10;;;14.75;;
52942;SDS011;38809;53.300;6.614;2023-04-28T15:17:02;19.17;;;13.73;;
52942;SDS011;38809;53.300;6.614;2023-04-28T15:19:28;19.00;;;13.82;;
52942;SDS011;38809;53.300;6.614;2023-04-28T15:21:55;20.05;;;15.25;;
52942;SDS011;38809;53.300;6.614;2023-04-28T15:24:21;18.88;;;15.45;;
52942;SDS011;38809;53.300;6.614;2023-04-28T15:26:47;19.50;;;13.82;;